Galaxy Ace — D5CZ7 — position and weather

sailwx.info

Track history (hours):
 
Tides and Currents Weather Stations Pressure Air Temp Water Temp Dewpoint Dewpoint Depression Visibility Wind Speed Wind Dir Waves Ship Positions

Galaxy Ace

Last reported at 2018-Jun-23 00:09 UTC. Time now 2018-Jun-24 09:13 UTC.
Position N 28°43' W 014°43'.

Length 199 m; draft 9.1 m.

Type: Cargo ship. MMSI: 636015819.

Date/timePositionNaut miles runAvg speedWind from/ knotsBaromVisibWave heightAir tempDewpointWater temp
2018-Jun-23 00:09N 28°43' W 014°43'316.3
2018-Jun-22 23:59N 28°40' W 014°43'816.1
2018-Jun-22 23:30N 28°33' W 014°46'816.1
2018-Jun-22 23:00N 28°25' W 014°48'816.2
2018-Jun-22 22:30N 28°17' W 014°51'816.0
2018-Jun-22 22:00N 28°10' W 014°55'816.0
2018-Jun-22 21:30N 28°03' W 014°58'815.9
2018-Jun-22 21:00N 27°55' W 015°01'815.9
2018-Jun-22 20:30N 27°48' W 015°04'815.8
2018-Jun-22 20:00N 27°40' W 015°07'815.6
2018-Jun-22 19:30N 27°33' W 015°11'815.3
2018-Jun-22 19:00N 27°26' W 015°15'  
Track history (hours):
 
Tides and Currents Weather Stations Pressure Air Temp Water Temp Dewpoint Dewpoint Depression Visibility Wind Speed Wind Dir Waves Ship Positions

Galaxy Ace

Last reported at 2018-Jun-23 00:09 UTC. Time now 2018-Jun-24 09:13 UTC.
Position N 28°43' W 014°43'.

Length 199 m; draft 9.1 m.

Type: Cargo ship. MMSI: 636015819.

Date/timePositionNaut miles runAvg speedWind from/ knotsBaromVisibWave heightAir tempDewpointWater temp
2018-Jun-23 00:09N 28°43' W 014°43'316.3
2018-Jun-22 23:59N 28°40' W 014°43'816.1
2018-Jun-22 23:30N 28°33' W 014°46'816.1
2018-Jun-22 23:00N 28°25' W 014°48'816.2
2018-Jun-22 22:30N 28°17' W 014°51'816.0
2018-Jun-22 22:00N 28°10' W 014°55'816.0
2018-Jun-22 21:30N 28°03' W 014°58'815.9
2018-Jun-22 21:00N 27°55' W 015°01'815.9
2018-Jun-22 20:30N 27°48' W 015°04'815.8
2018-Jun-22 20:00N 27°40' W 015°07'815.6
2018-Jun-22 19:30N 27°33' W 015°11'815.3
2018-Jun-22 19:00N 27°26' W 015°15'  

Dump ship's entire track history